Time;durP1;ratioP1;P1;durP2;ratioP2;P2;SDS_P1;SDS_P2;PMS_P1;PMS_P2;Temp;Humidity;BMP_temperature;BMP_pressure;BME280_temperature;BME280_humidity;BME280_pressure;Samples;Min_cycle;Max_cycle;Signal;HPM_P1;HPM_P2
2022/09/19 00:00:29;;;;;;;0.50;0.47;;;7.40;99.90;;;;;;4976369;28;20466;-89
2022/09/19 00:02:58;;;;;;;0.40;0.40;;;;;;;;;;4974957;28;20482;-89
2022/09/19 00:05:24;;;;;;;0.60;0.50;;;;;;;;;;4979020;28;20179;-88
2022/09/19 00:07:52;;;;;;;0.90;0.60;;;;;;;;;;4975401;28;20210;-89
2022/09/19 00:10:18;;;;;;;1.40;0.30;;;;;;;;;;4972820;28;20823;-88
2022/09/19 00:12:44;;;;;;;0.40;0.30;;;;;;;;;;4973869;28;20183;-88
2022/09/19 00:15:10;;;;;;;0.40;0.30;;;;;;;;;;4991924;28;20890;-89
2022/09/19 00:17:37;;;;;;;0.40;0.30;;;;;;;;;;4977959;28;20310;-89
2022/09/19 00:20:03;;;;;;;0.50;0.40;;;;;;;;;;4973832;28;20320;-90
2022/09/19 00:22:30;;;;;;;0.65;0.30;;;;;;;;;;4975322;28;20180;-89
2022/09/19 00:24:56;;;;;;;0.50;0.40;;;;;;;;;;4977458;28;20264;-84
2022/09/19 00:27:25;;;;;;;1.88;0.40;;;7.20;99.90;;;;;;4980192;28;20202;-89
2022/09/19 00:29:52;;;;;;;0.50;0.40;;;7.20;99.90;;;;;;4981162;28;20195;-88
2022/09/19 00:32:18;;;;;;;1.08;0.60;;;;;;;;;;4970804;28;20222;-88
2022/09/19 00:34:47;;;;;;;0.63;0.30;;;7.20;99.90;;;;;;4973536;28;20191;-88
2022/09/19 00:37:13;;;;;;;1.38;0.40;;;;;;;;;;4965564;28;20553;-89
2022/09/19 00:39:39;;;;;;;0.50;0.50;;;;;;;;;;4974637;28;20213;-89
2022/09/19 00:42:06;;;;;;;0.70;0.47;;;;;;;;;;4975646;28;20175;-88
2022/09/19 00:44:31;;;;;;;0.60;0.57;;;7.00;99.90;;;;;;4972499;28;20179;-89
2022/09/19 00:47:02;;;;;;;0.50;0.50;;;7.10;99.90;;;;;;4972522;28;20213;-88
2022/09/19 00:49:31;;;;;;;0.43;0.40;;;7.00;99.90;;;;;;4983674;28;20190;-88
2022/09/19 00:52:00;;;;;;;0.50;0.50;;;7.10;99.90;;;;;;4970690;28;20210;-88
2022/09/19 00:54:40;;;;;;;1.02;0.40;;;7.10;99.90;;;;;;4975586;28;20596;-88
2022/09/19 00:57:06;;;;;;;0.50;0.40;;;7.20;99.90;;;;;;4976661;28;20262;-88
2022/09/19 00:59:35;;;;;;;0.40;0.35;;;8.20;99.90;;;;;;4990698;28;20204;-88
2022/09/19 01:02:06;;;;;;;1.10;0.50;;;7.20;99.90;;;;;;4975812;28;20191;-88
2022/09/19 01:04:35;;;;;;;0.55;0.55;;;7.40;99.90;;;;;;4971766;28;20198;-89
2022/09/19 01:07:25;;;;;;;0.88;0.35;;;7.50;99.90;;;;;;4968684;28;20222;-88
2022/09/19 01:10:12;;;;;;;0.98;0.40;;;7.50;99.90;;;;;;4964884;28;20198;-88
2022/09/19 01:13:10;;;;;;;4.57;0.50;;;7.40;99.90;;;;;;4955185;28;20227;-88
2022/09/19 01:15:51;;;;;;;0.82;0.40;;;7.40;99.90;;;;;;4951846;28;20232;-89
2022/09/19 01:18:21;;;;;;;0.63;0.40;;;7.30;99.90;;;;;;4965142;28;20223;-88
2022/09/19 01:21:40;;;;;;;1.63;0.50;;;7.30;99.90;;;;;;4973087;28;20230;-89
2022/09/19 01:24:26;;;;;;;0.43;0.43;;;7.30;99.90;;;;;;4966132;28;21090;-87
2022/09/19 01:27:17;;;;;;;0.60;0.40;;;7.20;99.90;;;;;;4980047;28;20245;-86
2022/09/19 01:29:55;;;;;;;3.17;0.45;;;7.30;99.90;;;;;;4966995;28;20229;-87
2022/09/19 01:32:26;;;;;;;1.40;0.45;;;7.40;99.90;;;;;;4972555;28;20180;-88
2022/09/19 01:34:55;;;;;;;2.83;0.60;;;7.40;99.90;;;;;;4969970;28;20221;-87
2022/09/19 01:37:31;;;;;;;2.60;0.50;;;7.30;99.90;;;;;;4979248;28;20238;-87
2022/09/19 01:40:01;;;;;;;6.43;0.93;;;7.20;99.90;;;;;;4969484;28;20219;-84
2022/09/19 01:42:27;;;;;;;2.13;0.65;;;7.20;99.90;;;;;;4980875;28;20637;-85
2022/09/19 01:44:53;;;;;;;1.90;0.33;;;7.30;99.90;;;;;;4980139;28;20198;-87
2022/09/19 01:48:08;;;;;;;1.23;0.80;;;7.20;99.90;;;;;;4986448;28;22286;-86
2022/09/19 01:50:39;;;;;;;1.70;0.70;;;7.20;99.90;;;;;;4973858;28;20230;-86
2022/09/19 01:53:34;;;;;;;9.30;1.10;;;7.40;99.90;;;;;;4985865;28;20215;-87
2022/09/19 01:56:29;;;;;;;1.90;0.88;;;7.40;99.90;;;;;;4976085;28;20182;-87
2022/09/19 01:59:17;;;;;;;5.57;0.77;;;7.40;99.90;;;;;;4968428;28;20208;-87
2022/09/19 02:02:11;;;;;;;2.60;0.93;;;7.40;99.90;;;;;;4974801;28;21072;-87
2022/09/19 02:04:43;;;;;;;2.78;0.60;;;7.50;99.90;;;;;;4973192;28;20230;-87
2022/09/19 02:07:25;;;;;;;3.63;0.73;;;7.60;99.90;;;;;;4979954;28;20283;-86
2022/09/19 02:10:05;;;;;;;4.95;1.48;;;7.70;99.90;;;;;;4968819;28;20218;-88
2022/09/19 02:12:34;;;;;;;0.93;0.50;;;7.70;99.90;;;;;;4982961;28;20241;-88
2022/09/19 02:15:03;;;;;;;4.63;0.63;;;7.80;99.90;;;;;;4975273;28;20176;-88
2022/09/19 02:17:52;;;;;;;0.40;0.40;;;7.80;99.90;;;;;;4974127;28;20378;-89
2022/09/19 02:20:31;;;;;;;1.60;0.60;;;7.80;99.90;;;;;;4977958;28;20206;-85
2022/09/19 02:23:03;;;;;;;2.25;0.70;;;7.80;99.90;;;;;;4988777;28;20554;-85
2022/09/19 02:25:32;;;;;;;1.25;0.63;;;7.80;99.90;;;;;;4986285;28;20202;-86
2022/09/19 02:28:09;;;;;;;3.67;1.10;;;7.80;99.90;;;;;;4982182;28;20199;-85
2022/09/19 02:30:36;;;;;;;6.97;0.85;;;8.00;99.90;;;;;;4985879;28;20238;-85
2022/09/19 02:33:06;;;;;;;2.97;0.70;;;7.90;99.90;;;;;;4985535;28;20555;-87
2022/09/19 02:35:44;;;;;;;2.15;0.70;;;8.10;99.90;;;;;;4976656;28;20225;-88
2022/09/19 02:38:29;;;;;;;0.70;0.50;;;8.10;99.90;;;;;;4977744;28;20199;-88
2022/09/19 02:41:12;;;;;;;2.30;0.70;;;8.10;99.90;;;;;;4975363;28;20293;-87
2022/09/19 02:43:47;;;;;;;3.20;0.70;;;8.00;99.90;;;;;;4973310;28;20206;-88
2022/09/19 02:46:22;;;;;;;3.30;0.80;;;8.00;99.90;;;;;;4976645;28;20186;-88
2022/09/19 02:49:01;;;;;;;1.58;0.75;;;8.00;99.90;;;;;;4987801;28;20237;-87
2022/09/19 02:51:40;;;;;;;7.80;0.80;;;7.80;99.90;;;;;;4989524;28;20175;-88
2022/09/19 02:54:12;;;;;;;1.30;0.80;;;7.90;99.90;;;;;;4977393;28;20596;-87
2022/09/19 02:56:41;;;;;;;3.35;0.80;;;7.80;99.90;;;;;;4985427;28;20199;-88
2022/09/19 02:59:22;;;;;;;2.72;0.68;;;7.90;99.90;;;;;;4970038;28;20290;-87
2022/09/19 03:01:59;;;;;;;4.03;1.45;;;7.90;99.90;;;;;;4966255;28;20612;-89
2022/09/19 03:04:31;;;;;;;3.10;0.65;;;7.90;99.90;;;;;;4970442;28;20183;-88
2022/09/19 03:07:14;;;;;;;1.88;0.95;;;7.90;99.90;;;;;;4985788;28;20214;-88
2022/09/19 03:09:47;;;;;;;2.78;0.60;;;8.00;99.90;;;;;;4965920;28;20193;-88
2022/09/19 03:12:22;;;;;;;0.80;0.45;;;8.10;99.90;;;;;;4976647;28;20187;-87
2022/09/19 03:14:56;;;;;;;4.07;0.95;;;8.10;99.90;;;;;;4980848;28;20179;-87
2022/09/19 03:17:43;;;;;;;4.63;0.70;;;8.10;99.90;;;;;;4968273;28;20226;-88
2022/09/19 03:20:12;;;;;;;3.80;0.88;;;8.20;99.90;;;;;;4984203;28;20200;-89
2022/09/19 03:22:39;;;;;;;0.77;0.70;;;8.20;99.90;;;;;;4979967;28;20648;-90
2022/09/19 03:25:10;;;;;;;1.08;0.70;;;8.20;99.90;;;;;;4980867;28;20226;-89
2022/09/19 03:27:38;;;;;;;0.65;0.30;;;;;;;;;;4979630;28;20210;-89
2022/09/19 03:30:07;;;;;;;5.40;0.80;;;8.30;99.90;;;;;;4979587;28;20215;-87
2022/09/19 03:32:34;;;;;;;3.22;1.15;;;;;;;;;;4971190;28;20191;-87
2022/09/19 03:35:00;;;;;;;4.85;0.60;;;;;;;;;;4996114;28;20279;-88
2022/09/19 03:37:25;;;;;;;5.80;1.03;;;8.40;99.90;;;;;;4982423;28;20207;-87
2022/09/19 03:39:52;;;;;;;5.30;1.10;;;;;;;;;;4975784;28;20530;-86
2022/09/19 03:42:20;;;;;;;2.22;0.80;;;;;;;;;;4988121;28;20187;-85
2022/09/19 03:44:46;;;;;;;2.42;1.63;;;8.40;99.90;;;;;;4990388;28;20184;-86
2022/09/19 03:47:11;;;;;;;5.60;1.27;;;8.40;99.90;;;;;;4978409;28;20210;-88
2022/09/19 03:49:38;;;;;;;3.50;0.90;;;;;;;;;;4989465;28;20842;-88
2022/09/19 03:52:03;;;;;;;2.40;0.68;;;8.40;99.90;;;;;;4973642;28;20613;-86
2022/09/19 03:54:29;;;;;;;3.83;0.97;;;;;;;;;;4974029;28;20206;-88
2022/09/19 03:56:55;;;;;;;7.93;1.53;;;;;;;;;;4989824;28;20234;-88
2022/09/19 03:59:21;;;;;;;4.10;0.87;;;;;;;;;;4980280;28;20509;-88
2022/09/19 04:01:47;;;;;;;2.87;0.87;;;;;;;;;;4988873;28;20452;-88
2022/09/19 04:04:13;;;;;;;11.30;1.70;;;;;;;;;;4977164;28;20502;-88
2022/09/19 04:06:40;;;;;;;2.25;0.98;;;;;;;;;;4979199;28;20202;-88
2022/09/19 04:09:06;;;;;;;4.88;0.95;;;8.60;99.90;;;;;;4979099;28;20183;-88
2022/09/19 04:11:32;;;;;;;6.53;1.20;;;;;;;;;;4976094;28;20199;-88
2022/09/19 04:13:58;;;;;;;3.85;1.25;;;;;;;;;;4977480;28;20183;-88
2022/09/19 04:29:32;;;;;;;5.03;0.90;;;8.90;99.90;;;;;;6220309;22;20200;-86
2022/09/19 04:32:02;;;;;;;11.07;1.63;;;8.90;99.90;;;;;;6210708;23;20247;-83
2022/09/19 04:34:28;;;;;;;9.75;1.27;;;;;;;;;;6215345;23;20164;-85
2022/09/19 04:36:56;;;;;;;13.55;1.20;;;9.00;99.90;;;;;;6208366;23;20148;-84
2022/09/19 04:39:22;;;;;;;2.63;1.38;;;9.00;99.90;;;;;;6209156;23;20172;-85
2022/09/19 04:41:52;;;;;;;5.30;1.20;;;9.00;99.90;;;;;;6215256;23;20148;-84
2022/09/19 04:44:18;;;;;;;5.47;1.52;;;9.00;99.90;;;;;;6215621;23;20157;-84
2022/09/19 04:46:44;;;;;;;4.40;1.48;;;9.00;99.90;;;;;;6217349;23;20542;-84
2022/09/19 04:49:11;;;;;;;3.88;1.00;;;8.90;99.90;;;;;;6211627;23;20182;-85
2022/09/19 04:51:37;;;;;;;6.20;1.45;;;;;;;;;;6215021;23;20774;-80
2022/09/19 04:54:05;;;;;;;2.40;1.20;;;;;;;;;;6218853;23;20176;-83
2022/09/19 04:56:31;;;;;;;6.05;1.10;;;;;;;;;;6238993;22;20419;-82
2022/09/19 04:58:59;;;;;;;5.07;1.50;;;8.90;99.90;;;;;;6220779;23;20168;-85
2022/09/19 05:01:25;;;;;;;19.77;2.22;;;;;;;;;;6222190;23;20360;-82
2022/09/19 05:03:51;;;;;;;5.10;0.95;;;8.80;99.90;;;;;;6217965;23;20214;-84
2022/09/19 05:06:17;;;;;;;7.13;4.20;;;8.90;99.90;;;;;;6212649;23;20236;-83
2022/09/19 05:08:43;;;;;;;13.57;1.30;;;8.90;99.90;;;;;;6211843;23;20191;-84
2022/09/19 05:11:10;;;;;;;6.72;1.00;;;8.90;99.90;;;;;;6210244;23;20141;-88
2022/09/19 05:13:40;;;;;;;7.90;2.05;;;8.90;99.90;;;;;;6209662;23;20172;-85
2022/09/19 05:16:07;;;;;;;4.03;1.15;;;8.80;99.90;;;;;;6212833;23;20176;-84
2022/09/19 05:18:37;;;;;;;8.93;1.75;;;8.90;99.90;;;;;;6217593;23;20233;-86
2022/09/19 05:21:05;;;;;;;6.90;1.63;;;9.00;99.90;;;;;;6237699;23;20147;-84
2022/09/19 05:23:31;;;;;;;13.63;2.08;;;;;;;;;;6212876;23;20180;-87
2022/09/19 05:26:03;;;;;;;8.03;1.67;;;8.90;99.90;;;;;;6211835;23;20157;-85
2022/09/19 05:28:28;;;;;;;8.25;1.38;;;8.90;99.90;;;;;;6203279;23;20431;-85
2022/09/19 05:30:55;;;;;;;3.70;0.87;;;;;;;;;;6207141;23;20169;-85
2022/09/19 05:33:26;;;;;;;2.70;1.00;;;8.80;99.90;;;;;;6200661;23;20848;-85
2022/09/19 05:35:53;;;;;;;9.90;1.70;;;8.70;99.90;;;;;;6204716;23;20165;-82
2022/09/19 05:38:19;;;;;;;4.55;1.05;;;;;;;;;;6199246;23;20172;-85
2022/09/19 05:40:46;;;;;;;3.22;1.13;;;8.70;99.90;;;;;;6202571;23;20208;-85
2022/09/19 05:43:12;;;;;;;4.50;1.55;;;;;;;;;;6198567;23;20149;-86
2022/09/19 05:45:38;;;;;;;5.80;1.20;;;;;;;;;;6206253;23;20161;-82
2022/09/19 05:48:05;;;;;;;4.37;1.70;;;8.80;99.90;;;;;;6192519;23;21054;-85
2022/09/19 05:50:32;;;;;;;4.05;1.30;;;8.90;99.90;;;;;;6205314;23;20749;-84
2022/09/19 05:55:42;;;;;;;7.90;1.30;;;9.00;99.90;;;;;;6205260;23;20188;-86
2022/09/19 05:58:09;;;;;;;7.33;1.80;;;;;;;;;;6199250;23;20177;-82
2022/09/19 06:00:37;;;;;;;6.10;2.08;;;9.20;99.90;;;;;;6202943;23;20160;-83
2022/09/19 06:03:04;;;;;;;11.30;1.58;;;8.90;99.90;;;;;;6203256;23;20168;-85
2022/09/19 06:05:36;;;;;;;6.13;1.50;;;9.50;99.90;;;;;;6206043;23;20578;-85
2022/09/19 06:08:04;;;;;;;8.15;1.65;;;;;;;;;;6205022;23;20272;-83
2022/09/19 06:10:34;;;;;;;4.25;1.65;;;9.50;99.90;;;;;;6222653;23;20138;-83
2022/09/19 06:13:00;;;;;;;12.50;1.52;;;;;;;;;;6196979;23;20931;-83
2022/09/19 06:15:26;;;;;;;6.27;1.70;;;;;;;;;;6201434;23;20180;-82
2022/09/19 06:17:58;;;;;;;12.73;1.97;;;9.50;99.90;;;;;;6201331;23;20461;-86
2022/09/19 06:20:24;;;;;;;10.60;2.03;;;;;;;;;;6202016;23;20369;-84
2022/09/19 06:23:02;;;;;;;2.00;1.48;;;9.50;99.90;;;;;;6201754;23;20172;-82
2022/09/19 06:25:31;;;;;;;11.63;1.70;;;9.40;99.90;;;;;;6203504;23;20875;-83
2022/09/19 06:28:06;;;;;;;8.77;1.70;;;9.50;99.90;;;;;;6199837;23;20199;-86
2022/09/19 06:30:33;;;;;;;9.93;1.45;;;;;;;;;;6202444;23;20148;-85
2022/09/19 06:32:59;;;;;;;8.13;1.40;;;9.70;99.90;;;;;;6204278;23;20185;-85
2022/09/19 06:35:28;;;;;;;19.23;1.83;;;;;;;;;;6204329;23;20181;-83
2022/09/19 06:38:07;;;;;;;2.95;1.42;;;9.90;99.90;;;;;;6203473;23;20353;-86
2022/09/19 06:40:36;;;;;;;6.25;1.10;;;9.90;99.90;;;;;;6207195;23;20137;-87
2022/09/19 06:43:04;;;;;;;6.55;2.03;;;10.00;99.90;;;;;;6202836;23;20141;-85
2022/09/19 06:45:36;;;;;;;7.90;1.20;;;10.10;99.90;;;;;;6207478;23;20184;-84
2022/09/19 06:48:01;;;;;;;8.00;1.60;;;10.40;99.90;;;;;;6203125;23;20181;-84
2022/09/19 06:50:28;;;;;;;3.10;1.23;;;;;;;;;;6206063;23;20153;-85
2022/09/19 06:52:55;;;;;;;4.22;1.85;;;10.40;99.90;;;;;;6207442;23;20162;-81
2022/09/19 06:55:23;;;;;;;4.30;1.40;;;;;;;;;;6224050;22;20220;-84
2022/09/19 06:58:00;;;;;;;7.97;1.42;;;10.10;99.90;;;;;;6206744;23;20977;-83
2022/09/19 07:00:28;;;;;;;8.57;2.05;;;10.20;99.90;;;;;;6205278;23;20187;-85
2022/09/19 07:03:03;;;;;;;2.15;1.30;;;10.30;99.90;;;;;;6203455;23;20246;-85
2022/09/19 07:05:34;;;;;;;8.38;1.52;;;10.40;99.90;;;;;;6216494;22;20207;-85
2022/09/19 07:07:59;;;;;;;4.05;1.10;;;10.40;99.90;;;;;;6208224;23;20156;-86
2022/09/19 07:10:26;;;;;;;11.43;1.40;;;;;;;;;;6237071;23;20152;-87
2022/09/19 07:12:56;;;;;;;4.53;1.80;;;10.90;99.90;;;;;;6206202;23;21141;-87
2022/09/19 07:15:25;;;;;;;19.77;1.92;;;10.80;99.90;;;;;;6202479;23;20199;-86
2022/09/19 07:17:55;;;;;;;6.97;1.70;;;10.80;99.90;;;;;;6232295;23;20157;-86
2022/09/19 07:20:25;;;;;;;2.88;1.40;;;11.00;99.90;;;;;;6224488;23;20201;-86
2022/09/19 07:23:13;;;;;;;3.42;1.50;;;9.70;99.90;;;;;;6225154;23;20145;-86
2022/09/19 07:25:40;;;;;;;7.85;1.77;;;10.40;99.90;;;;;;6219740;23;20165;-86
2022/09/19 07:28:09;;;;;;;7.65;1.40;;;10.50;99.90;;;;;;6213396;23;20145;-86
2022/09/19 07:30:35;;;;;;;9.50;1.40;;;10.50;99.90;;;;;;6226393;23;20141;-87
2022/09/19 07:33:03;;;;;;;3.90;1.10;;;10.60;99.90;;;;;;6224423;23;20164;-86
2022/09/19 07:35:30;;;;;;;5.80;2.75;;;10.50;99.90;;;;;;6182118;23;20204;-87
2022/09/19 07:37:56;;;;;;;8.25;1.90;;;;;;;;;;6181207;23;20154;-86
2022/09/19 07:40:23;;;;;;;9.00;1.48;;;10.50;99.90;;;;;;6206668;23;20500;-86
2022/09/19 07:42:52;;;;;;;6.22;1.70;;;;;;;;;;6207885;23;20141;-86
2022/09/19 07:45:19;;;;;;;7.88;1.73;;;;;;;;;;6180826;23;20176;-86
2022/09/19 07:47:46;;;;;;;8.77;2.22;;;10.60;99.90;;;;;;6177818;23;20168;-87
2022/09/19 07:50:16;;;;;;;7.07;1.90;;;10.70;99.90;;;;;;6205067;23;20177;-86
2022/09/19 07:52:46;;;;;;;5.72;1.98;;;11.70;99.90;;;;;;6179058;23;20180;-86
2022/09/19 07:55:12;;;;;;;8.32;1.33;;;;;;;;;;6178667;23;20228;-85
2022/09/19 07:57:38;;;;;;;5.70;1.17;;;;;;;;;;6207154;23;20252;-86
2022/09/19 08:00:05;;;;;;;3.33;1.67;;;10.70;99.90;;;;;;6206728;23;20365;-87
2022/09/19 08:02:31;;;;;;;9.32;1.73;;;;;;;;;;6178546;23;20380;-87
2022/09/19 08:04:57;;;;;;;9.40;2.63;;;;;;;;;;6204586;23;20230;-86
2022/09/19 08:07:23;;;;;;;12.07;1.85;;;;;;;;;;6178383;23;20471;-86
2022/09/19 08:09:49;;;;;;;7.93;3.63;;;;;;;;;;6207067;23;20154;-86
2022/09/19 08:12:15;;;;;;;4.03;1.73;;;;;;;;;;6205968;23;20173;-85
2022/09/19 08:14:41;;;;;;;7.63;1.53;;;12.00;99.90;;;;;;6186594;23;20454;-86
2022/09/19 08:17:06;;;;;;;10.90;1.57;;;12.00;99.90;;;;;;6211195;23;20384;-85
2022/09/19 08:19:33;;;;;;;5.80;1.33;;;;;;;;;;6207462;23;20241;-86
2022/09/19 08:21:59;;;;;;;15.95;2.83;;;;;;;;;;6206682;23;20170;-86
2022/09/19 08:24:25;;;;;;;8.20;2.07;;;;;;;;;;6207814;23;21000;-86
2022/09/19 08:26:50;;;;;;;4.33;1.50;;;;;;;;;;6180673;23;20446;-86
2022/09/19 08:29:16;;;;;;;4.87;1.77;;;;;;;;;;6206005;23;20388;-86
2022/09/19 08:31:42;;;;;;;10.52;1.90;;;;;;;;;;6205256;23;20364;-86
2022/09/19 08:34:09;;;;;;;9.30;2.40;;;;;;;;;;6206603;23;20149;-86
2022/09/19 08:36:36;;;;;;;5.28;1.35;;;;;;;;;;6178208;23;20436;-86
2022/09/19 08:39:03;;;;;;;5.30;1.40;;;12.70;99.90;;;;;;6205903;23;20249;-86
2022/09/19 08:41:53;;;;;;;5.13;1.58;;;12.50;99.90;;;;;;6205710;23;20734;-86
2022/09/19 08:44:30;;;;;;;9.93;1.58;;;12.50;99.90;;;;;;6177567;23;20224;-86
2022/09/19 08:47:11;;;;;;;6.45;1.55;;;12.40;99.90;;;;;;6205966;23;20165;-86
2022/09/19 08:49:45;;;;;;;8.23;1.27;;;12.30;99.90;;;;;;6176740;23;20295;-86
2022/09/19 08:52:27;;;;;;;8.02;1.58;;;12.60;99.90;;;;;;6231877;23;20126;-86
2022/09/19 08:54:55;;;;;;;5.60;1.55;;;12.50;99.90;;;;;;6182024;23;20292;-87
2022/09/19 08:57:27;;;;;;;2.45;1.55;;;12.70;99.90;;;;;;6206067;23;20149;-86
2022/09/19 09:00:01;;;;;;;7.82;1.65;;;13.50;99.90;;;;;;6209632;23;20184;-87
2022/09/19 09:02:46;;;;;;;8.95;1.52;;;14.20;99.90;;;;;;6178425;23;20149;-87
2022/09/19 09:05:22;;;;;;;7.30;1.53;;;14.60;99.90;;;;;;6184234;23;20263;-86
2022/09/19 09:07:47;;;;;;;7.90;1.50;;;;;;;;;;6207097;23;20364;-85
2022/09/19 09:10:31;;;;;;;4.67;1.60;;;14.10;99.90;;;;;;6206379;23;20403;-86
2022/09/19 09:13:17;;;;;;;4.40;2.30;;;14.20;99.90;;;;;;6203820;23;20353;-85
2022/09/19 09:16:11;;;;;;;4.00;1.52;;;13.30;99.90;;;;;;6209258;23;20419;-87
2022/09/19 09:18:49;;;;;;;5.03;2.10;;;13.30;99.90;;;;;;6180815;23;20574;-86
2022/09/19 09:21:25;;;;;;;4.53;1.88;;;12.90;99.90;;;;;;6209617;23;20355;-86
2022/09/19 09:24:05;;;;;;;4.80;2.00;;;13.00;99.90;;;;;;6206976;23;20136;-87
2022/09/19 09:26:40;;;;;;;7.35;1.45;;;13.00;99.90;;;;;;6179727;23;20530;-87
2022/09/19 09:29:17;;;;;;;18.58;3.25;;;13.60;99.90;;;;;;6206401;23;20165;-86
2022/09/19 09:32:24;;;;;;;8.13;1.95;;;13.70;99.90;;;;;;6207175;23;20133;-86
2022/09/19 09:34:58;;;;;;;8.77;1.75;;;13.40;99.90;;;;;;6148659;23;20188;-85
2022/09/19 09:37:40;;;;;;;4.30;1.33;;;12.80;99.90;;;;;;6207995;23;20474;-86
2022/09/19 09:40:12;;;;;;;5.07;1.25;;;;;;;;;;6207434;23;20137;-86
2022/09/19 09:43:02;;;;;;;7.40;2.20;;;13.20;99.90;;;;;;6207170;23;20134;-87
2022/09/19 09:45:40;;;;;;;2.67;1.58;;;14.30;99.90;;;;;;6182862;23;20184;-86
2022/09/19 09:48:33;;;;;;;4.57;1.37;;;13.80;99.90;;;;;;6208188;23;20491;-86
2022/09/19 09:51:08;;;;;;;4.40;1.83;;;13.50;99.90;;;;;;6209809;23;20356;-86
2022/09/19 09:53:34;;;;;;;6.37;1.70;;;;;;;;;;6205146;23;20256;-86
2022/09/19 09:56:15;;;;;;;3.03;1.60;;;13.30;99.90;;;;;;6209887;23;20423;-85
2022/09/19 09:58:41;;;;;;;4.25;1.67;;;;;;;;;;6206007;23;20460;-85
2022/09/19 10:04:09;;;;;;;3.40;1.48;;;13.10;99.90;;;;;;6220864;23;20356;-88
2022/09/19 10:06:41;;;;;;;6.25;1.70;;;12.90;99.90;;;;;;6191594;23;20211;-87
2022/09/19 10:09:07;;;;;;;4.90;1.70;;;;;;;;;;6212456;23;20144;-86
2022/09/19 10:12:06;;;;;;;9.83;2.10;;;12.50;99.90;;;;;;6216298;23;20129;-86
2022/09/19 10:14:35;;;;;;;7.88;2.25;;;12.90;99.90;;;;;;6201353;23;20408;-87
2022/09/19 10:17:03;;;;;;;8.30;2.20;;;13.30;99.90;;;;;;6211779;23;20142;-87
2022/09/19 10:19:44;;;;;;;10.63;1.88;;;13.10;99.90;;;;;;6210723;23;20249;-87
2022/09/19 10:22:14;;;;;;;10.02;1.50;;;12.90;99.90;;;;;;6181883;23;20596;-86
2022/09/19 10:24:52;;;;;;;5.25;2.05;;;12.90;99.90;;;;;;6183200;23;20663;-86
2022/09/19 10:27:38;;;;;;;7.90;3.07;;;13.10;99.90;;;;;;6209334;23;20133;-87
2022/09/19 10:30:17;;;;;;;1.92;1.40;;;13.20;99.90;;;;;;6179031;23;20384;-86
2022/09/19 10:32:45;;;;;;;5.35;1.45;;;12.90;99.90;;;;;;6174969;23;20156;-87
2022/09/19 10:35:33;;;;;;;4.57;2.15;;;12.70;99.90;;;;;;6204967;23;20181;-86
2022/09/19 10:38:13;;;;;;;10.07;1.88;;;12.50;99.90;;;;;;6208016;23;20144;-86
2022/09/19 10:40:58;;;;;;;7.07;1.98;;;12.60;99.90;;;;;;6179637;23;20573;-86
2022/09/19 10:43:31;;;;;;;11.73;2.05;;;13.10;99.90;;;;;;6203836;23;20386;-86
2022/09/19 10:45:58;;;;;;;4.63;1.65;;;13.60;99.90;;;;;;6204218;23;20205;-85
2022/09/19 10:48:36;;;;;;;4.23;2.00;;;13.60;99.90;;;;;;6210365;23;20153;-85
2022/09/19 10:51:13;;;;;;;3.90;2.03;;;13.90;99.90;;;;;;6181181;23;20376;-86
2022/09/19 10:53:46;;;;;;;5.72;1.67;;;14.00;99.90;;;;;;6200677;23;20133;-83
2022/09/19 10:56:23;;;;;;;4.60;1.50;;;;;;;;;;6214959;23;20208;-85
2022/09/19 10:58:53;;;;;;;10.77;1.73;;;14.30;99.90;;;;;;6208920;23;21265;-84
2022/09/19 11:01:22;;;;;;;3.30;2.13;;;13.80;99.90;;;;;;6182197;23;20434;-84
2022/09/19 11:04:05;;;;;;;5.33;2.23;;;13.20;99.90;;;;;;6208425;23;20369;-84
2022/09/19 11:06:32;;;;;;;5.43;1.90;;;13.60;99.90;;;;;;6207763;23;20419;-84
2022/09/19 11:08:59;;;;;;;4.90;1.50;;;13.40;99.90;;;;;;6207302;23;20380;-84
2022/09/19 11:12:04;;;;;;;7.30;1.50;;;13.60;99.90;;;;;;6210073;23;20161;-85
2022/09/19 11:14:33;;;;;;;11.35;2.65;;;13.50;99.90;;;;;;6153233;23;20567;-84
2022/09/19 11:17:24;;;;;;;2.85;1.33;;;13.80;99.90;;;;;;6210598;23;20164;-85
2022/09/19 11:20:32;;;;;;;7.70;1.52;;;14.10;99.90;;;;;;6212115;23;20164;-84
2022/09/19 11:22:58;;;;;;;2.70;1.63;;;;;;;;;;6194674;23;20182;-84
2022/09/19 11:25:50;;;;;;;3.33;1.30;;;14.90;99.90;;;;;;6212284;23;20916;-85
2022/09/19 11:28:24;;;;;;;12.13;2.40;;;15.10;99.90;;;;;;6209569;23;20384;-85
2022/09/19 11:31:08;;;;;;;2.93;1.80;;;14.90;99.90;;;;;;6208459;23;20384;-85
2022/09/19 11:33:38;;;;;;;15.90;3.13;;;;;;;;;;6222292;23;20420;-86
2022/09/19 11:36:10;;;;;;;3.90;1.47;;;15.40;99.90;;;;;;6222544;23;20448;-86
2022/09/19 11:38:56;;;;;;;6.53;1.37;;;15.10;99.90;;;;;;6209970;23;20368;-85
2022/09/19 11:41:22;;;;;;;4.80;1.87;;;;;;;;;;6209664;23;20352;-83
2022/09/19 11:44:12;;;;;;;7.80;1.70;;;14.50;99.90;;;;;;6209174;23;20393;-84
2022/09/19 11:46:57;;;;;;;4.50;2.10;;;14.00;99.90;;;;;;6205711;23;20396;-83
2022/09/19 11:49:56;;;;;;;5.80;1.85;;;13.80;99.90;;;;;;6206393;23;20368;-84
2022/09/19 11:52:45;;;;;;;5.27;1.83;;;13.80;99.90;;;;;;6202534;23;20217;-83
2022/09/19 11:55:28;;;;;;;4.73;2.30;;;13.80;99.90;;;;;;6203789;23;20844;-83
2022/09/19 11:58:07;;;;;;;12.95;1.65;;;13.40;99.90;;;;;;6208332;23;20903;-83
2022/09/19 12:01:06;;;;;;;4.93;2.47;;;13.40;99.90;;;;;;6208402;23;20243;-84
2022/09/19 12:03:50;;;;;;;3.47;2.30;;;13.50;99.90;;;;;;6159162;23;20479;-84
2022/09/19 12:06:35;;;;;;;2.22;1.48;;;13.60;99.90;;;;;;6208837;23;20997;-84
2022/09/19 12:09:18;;;;;;;2.40;1.33;;;13.90;99.90;;;;;;6209986;23;20149;-84
2022/09/19 12:11:51;;;;;;;5.50;1.47;;;13.80;99.90;;;;;;6207914;23;20242;-86
2022/09/19 12:14:28;;;;;;;5.37;1.50;;;14.00;99.90;;;;;;6210111;23;20400;-83
2022/09/19 12:16:58;;;;;;;6.27;1.73;;;14.20;99.90;;;;;;6183231;23;20438;-84
2022/09/19 12:19:51;;;;;;;3.50;1.50;;;14.40;99.90;;;;;;6209971;23;20406;-83
2022/09/19 12:22:25;;;;;;;3.27;1.23;;;14.50;99.90;;;;;;6178336;23;20764;-86
2022/09/19 12:25:05;;;;;;;7.00;2.70;;;14.50;99.90;;;;;;6208690;23;20360;-84
2022/09/19 12:27:34;;;;;;;4.77;1.40;;;14.40;99.90;;;;;;6178611;23;20376;-84
2022/09/19 12:30:08;;;;;;;8.03;1.57;;;14.20;99.90;;;;;;6205038;23;20459;-86
2022/09/19 12:32:52;;;;;;;4.40;1.13;;;14.30;99.90;;;;;;6204016;23;20839;-85
2022/09/19 12:35:30;;;;;;;3.57;1.60;;;14.30;99.90;;;;;;6177707;23;20435;-86
2022/09/19 12:37:56;;;;;;;10.03;1.63;;;;;;;;;;6206967;23;20353;-85
2022/09/19 12:40:35;;;;;;;5.27;2.23;;;14.60;99.90;;;;;;6181085;23;20372;-85
2022/09/19 12:43:19;;;;;;;4.50;2.03;;;14.90;99.90;;;;;;6205675;23;20714;-84
2022/09/19 12:45:59;;;;;;;10.30;3.40;;;15.30;99.90;;;;;;6203487;23;20871;-85
2022/09/19 12:48:47;;;;;;;5.27;1.57;;;15.30;99.90;;;;;;6185505;23;20391;-86
2022/09/19 12:51:21;;;;;;;5.83;1.47;;;15.20;99.90;;;;;;6184104;23;20830;-85
2022/09/19 12:54:09;;;;;;;4.33;1.10;;;14.60;99.90;;;;;;6218068;23;20349;-84
2022/09/19 12:56:40;;;;;;;5.77;0.90;;;14.70;99.90;;;;;;6226844;23;20436;-85
2022/09/19 12:59:24;;;;;;;7.50;1.70;;;14.70;99.90;;;;;;6211760;23;20388;-86
2022/09/19 13:02:11;;;;;;;6.43;1.20;;;14.40;99.90;;;;;;6182722;23;20388;-86
2022/09/19 13:04:49;;;;;;;9.10;2.07;;;14.30;99.90;;;;;;6210833;23;20356;-85
2022/09/19 13:07:33;;;;;;;18.20;3.10;;;14.00;99.90;;;;;;6192088;23;20761;-86
2022/09/19 13:10:13;;;;;;;8.53;2.27;;;13.90;99.90;;;;;;6180118;23;20410;-85
2022/09/19 13:13:01;;;;;;;8.63;1.80;;;13.50;99.90;;;;;;6204007;23;20361;-83
2022/09/19 13:15:54;;;;;;;9.47;2.10;;;13.40;99.90;;;;;;6202563;23;20947;-83
2022/09/19 13:23:59;;;;;;;7.97;1.98;;;13.40;99.90;;;;;;6206458;23;21240;-82
2022/09/19 13:26:32;;;;;;;4.37;1.50;;;13.40;99.90;;;;;;6180038;23;20157;-85
2022/09/19 13:28:59;;;;;;;7.20;2.58;;;13.40;99.90;;;;;;6178950;23;20398;-83
2022/09/19 13:31:52;;;;;;;5.50;1.40;;;13.60;99.90;;;;;;6179300;23;20624;-80
2022/09/19 13:35:00;;;;;;;5.60;1.60;;;13.60;99.90;;;;;;6192559;23;20157;-83
2022/09/19 13:37:25;;;;;;;3.78;0.80;;;13.50;99.90;;;;;;6178175;23;20419;-83
2022/09/19 13:40:17;;;;;;;0.90;0.60;;;13.40;99.90;;;;;;6205710;23;20208;-82
2022/09/19 13:43:01;;;;;;;2.17;1.13;;;13.40;99.90;;;;;;6205385;23;20205;-84
2022/09/19 13:45:49;;;;;;;3.38;1.20;;;14.10;99.90;;;;;;6179593;23;20157;-84
2022/09/19 13:48:56;;;;;;;1.53;1.10;;;14.40;99.90;;;;;;6180493;23;20188;-81
2022/09/19 13:51:45;;;;;;;5.43;1.40;;;14.30;99.90;;;;;;6160125;23;20387;-84
2022/09/19 13:54:23;;;;;;;1.63;1.00;;;14.40;99.90;;;;;;6201962;23;20349;-85
2022/09/19 13:56:58;;;;;;;4.63;0.93;;;14.50;99.90;;;;;;6178531;23;20404;-83
2022/09/19 13:59:26;;;;;;;6.97;1.53;;;14.70;99.90;;;;;;6205166;23;20715;-82
2022/09/19 14:01:59;;;;;;;3.73;1.50;;;14.30;99.90;;;;;;6178982;23;20391;-84
2022/09/19 14:04:57;;;;;;;4.23;1.47;;;14.30;99.90;;;;;;6174269;23;20854;-84
2022/09/19 14:07:43;;;;;;;2.87;1.07;;;14.20;99.90;;;;;;6188335;23;20870;-86
2022/09/19 14:10:35;;;;;;;9.77;1.60;;;14.40;99.90;;;;;;6206100;23;20479;-84
2022/09/19 14:13:24;;;;;;;5.90;1.23;;;14.10;99.90;;;;;;6203194;23;20357;-85
2022/09/19 14:16:07;;;;;;;2.73;1.00;;;14.00;99.90;;;;;;6180585;23;20923;-80